sensor_id;sensor_type;location;lat;lon;timestamp;P1;durP1;ratioP1;P2;durP2;ratioP2
74465;SDS011;62916;50.044;15.938;2023-04-06T00:01:39;2.40;;;1.40;;
74465;SDS011;62916;50.044;15.938;2023-04-06T00:04:10;1.60;;;1.20;;
74465;SDS011;62916;50.044;15.938;2023-04-06T00:06:41;5.50;;;1.40;;
74465;SDS011;62916;50.044;15.938;2023-04-06T00:09:12;1.80;;;1.20;;
74465;SDS011;62916;50.044;15.938;2023-04-06T00:11:42;2.80;;;1.60;;
74465;SDS011;62916;50.044;15.938;2023-04-06T00:14:13;1.50;;;1.10;;
74465;SDS011;62916;50.044;15.938;2023-04-06T00:16:45;1.70;;;1.30;;
74465;SDS011;62916;50.044;15.938;2023-04-06T00:19:16;2.20;;;1.40;;
74465;SDS011;62916;50.044;15.938;2023-04-06T00:21:46;2.50;;;1.20;;
74465;SDS011;62916;50.044;15.938;2023-04-06T00:24:17;2.00;;;1.00;;
74465;SDS011;62916;50.044;15.938;2023-04-06T00:26:48;1.90;;;1.10;;
74465;SDS011;62916;50.044;15.938;2023-04-06T00:29:19;3.50;;;1.40;;
74465;SDS011;62916;50.044;15.938;2023-04-06T00:31:49;1.90;;;1.10;;
74465;SDS011;62916;50.044;15.938;2023-04-06T00:34:20;2.00;;;1.40;;
74465;SDS011;62916;50.044;15.938;2023-04-06T00:36:51;2.80;;;1.50;;
74465;SDS011;62916;50.044;15.938;2023-04-06T00:39:22;2.30;;;1.20;;
74465;SDS011;62916;50.044;15.938;2023-04-06T00:41:52;1.90;;;1.20;;
74465;SDS011;62916;50.044;15.938;2023-04-06T00:44:24;1.90;;;1.50;;
74465;SDS011;62916;50.044;15.938;2023-04-06T00:46:55;2.30;;;1.30;;
74465;SDS011;62916;50.044;15.938;2023-04-06T00:49:26;2.00;;;1.30;;
74465;SDS011;62916;50.044;15.938;2023-04-06T00:51:57;2.70;;;1.60;;
74465;SDS011;62916;50.044;15.938;2023-04-06T00:54:28;2.00;;;1.10;;
74465;SDS011;62916;50.044;15.938;2023-04-06T00:56:59;1.90;;;1.30;;
74465;SDS011;62916;50.044;15.938;2023-04-06T00:59:30;2.50;;;1.50;;
74465;SDS011;62916;50.044;15.938;2023-04-06T01:02:02;1.70;;;1.40;;
74465;SDS011;62916;50.044;15.938;2023-04-06T01:04:33;2.00;;;1.10;;
74465;SDS011;62916;50.044;15.938;2023-04-06T01:07:04;2.30;;;1.40;;
74465;SDS011;62916;50.044;15.938;2023-04-06T01:09:35;1.70;;;1.20;;
74465;SDS011;62916;50.044;15.938;2023-04-06T01:12:08;2.20;;;1.40;;
74465;SDS011;62916;50.044;15.938;2023-04-06T01:14:39;2.00;;;1.10;;
74465;SDS011;62916;50.044;15.938;2023-04-06T01:17:10;2.00;;;1.90;;
74465;SDS011;62916;50.044;15.938;2023-04-06T01:19:41;3.40;;;1.30;;
74465;SDS011;62916;50.044;15.938;2023-04-06T01:22:15;1.30;;;1.10;;
74465;SDS011;62916;50.044;15.938;2023-04-06T01:24:46;2.10;;;1.20;;
74465;SDS011;62916;50.044;15.938;2023-04-06T01:27:17;2.50;;;1.50;;
74465;SDS011;62916;50.044;15.938;2023-04-06T01:29:48;1.30;;;1.00;;
74465;SDS011;62916;50.044;15.938;2023-04-06T01:32:19;2.20;;;1.20;;
74465;SDS011;62916;50.044;15.938;2023-04-06T01:34:50;2.20;;;1.20;;
74465;SDS011;62916;50.044;15.938;2023-04-06T01:37:22;1.80;;;1.10;;
74465;SDS011;62916;50.044;15.938;2023-04-06T01:39:53;1.70;;;1.20;;
74465;SDS011;62916;50.044;15.938;2023-04-06T01:42:23;1.60;;;1.20;;
74465;SDS011;62916;50.044;15.938;2023-04-06T01:44:54;2.10;;;1.50;;
74465;SDS011;62916;50.044;15.938;2023-04-06T01:47:25;1.80;;;1.20;;
74465;SDS011;62916;50.044;15.938;2023-04-06T01:49:56;2.00;;;1.30;;
74465;SDS011;62916;50.044;15.938;2023-04-06T01:52:27;1.80;;;1.30;;
74465;SDS011;62916;50.044;15.938;2023-04-06T01:54:58;1.60;;;1.40;;
74465;SDS011;62916;50.044;15.938;2023-04-06T01:57:29;1.60;;;1.20;;
74465;SDS011;62916;50.044;15.938;2023-04-06T02:00:00;2.10;;;1.30;;
74465;SDS011;62916;50.044;15.938;2023-04-06T02:02:30;2.90;;;1.20;;
74465;SDS011;62916;50.044;15.938;2023-04-06T02:05:01;1.30;;;1.10;;
74465;SDS011;62916;50.044;15.938;2023-04-06T02:07:33;1.90;;;1.10;;
74465;SDS011;62916;50.044;15.938;2023-04-06T02:10:04;2.10;;;1.30;;
74465;SDS011;62916;50.044;15.938;2023-04-06T02:12:41;2.30;;;1.20;;
74465;SDS011;62916;50.044;15.938;2023-04-06T02:15:12;2.10;;;1.40;;
74465;SDS011;62916;50.044;15.938;2023-04-06T02:17:43;1.60;;;1.20;;
74465;SDS011;62916;50.044;15.938;2023-04-06T02:20:14;1.70;;;1.20;;
74465;SDS011;62916;50.044;15.938;2023-04-06T02:22:45;1.90;;;1.10;;
74465;SDS011;62916;50.044;15.938;2023-04-06T02:25:16;1.70;;;1.20;;
74465;SDS011;62916;50.044;15.938;2023-04-06T02:27:47;2.00;;;1.10;;
74465;SDS011;62916;50.044;15.938;2023-04-06T02:30:17;1.50;;;1.10;;
74465;SDS011;62916;50.044;15.938;2023-04-06T02:32:48;2.40;;;1.20;;
74465;SDS011;62916;50.044;15.938;2023-04-06T02:35:19;1.40;;;1.20;;
74465;SDS011;62916;50.044;15.938;2023-04-06T02:37:50;1.80;;;1.70;;
74465;SDS011;62916;50.044;15.938;2023-04-06T02:40:21;1.90;;;1.00;;
74465;SDS011;62916;50.044;15.938;2023-04-06T02:42:52;2.20;;;1.20;;
74465;SDS011;62916;50.044;15.938;2023-04-06T02:45:22;2.10;;;1.20;;
74465;SDS011;62916;50.044;15.938;2023-04-06T02:47:54;2.10;;;1.20;;
74465;SDS011;62916;50.044;15.938;2023-04-06T02:50:24;2.00;;;1.30;;
74465;SDS011;62916;50.044;15.938;2023-04-06T02:52:55;1.60;;;1.10;;
74465;SDS011;62916;50.044;15.938;2023-04-06T02:55:26;1.40;;;1.20;;
74465;SDS011;62916;50.044;15.938;2023-04-06T02:57:57;1.70;;;1.10;;
74465;SDS011;62916;50.044;15.938;2023-04-06T03:00:28;2.20;;;1.10;;
74465;SDS011;62916;50.044;15.938;2023-04-06T03:02:59;2.10;;;1.30;;
74465;SDS011;62916;50.044;15.938;2023-04-06T03:05:29;1.40;;;1.10;;
74465;SDS011;62916;50.044;15.938;2023-04-06T03:08:00;1.40;;;1.00;;
74465;SDS011;62916;50.044;15.938;2023-04-06T03:10:31;2.00;;;1.20;;
74465;SDS011;62916;50.044;15.938;2023-04-06T03:13:02;2.20;;;1.40;;
74465;SDS011;62916;50.044;15.938;2023-04-06T03:15:33;1.70;;;1.00;;
74465;SDS011;62916;50.044;15.938;2023-04-06T03:18:04;2.20;;;1.30;;
74465;SDS011;62916;50.044;15.938;2023-04-06T03:20:35;1.20;;;1.00;;
74465;SDS011;62916;50.044;15.938;2023-04-06T03:23:06;2.20;;;1.20;;
74465;SDS011;62916;50.044;15.938;2023-04-06T03:25:36;1.60;;;1.30;;
74465;SDS011;62916;50.044;15.938;2023-04-06T03:28:08;1.30;;;1.20;;
74465;SDS011;62916;50.044;15.938;2023-04-06T03:30:38;1.60;;;1.40;;
74465;SDS011;62916;50.044;15.938;2023-04-06T03:33:09;1.50;;;1.20;;
74465;SDS011;62916;50.044;15.938;2023-04-06T03:35:40;1.20;;;1.10;;
74465;SDS011;62916;50.044;15.938;2023-04-06T03:38:11;2.40;;;1.10;;
74465;SDS011;62916;50.044;15.938;2023-04-06T03:40:42;2.00;;;1.20;;
74465;SDS011;62916;50.044;15.938;2023-04-06T03:43:13;1.70;;;1.30;;
74465;SDS011;62916;50.044;15.938;2023-04-06T03:45:43;2.10;;;1.40;;
74465;SDS011;62916;50.044;15.938;2023-04-06T03:48:14;4.20;;;1.50;;
74465;SDS011;62916;50.044;15.938;2023-04-06T03:50:45;3.00;;;1.20;;
74465;SDS011;62916;50.044;15.938;2023-04-06T03:53:16;1.60;;;1.00;;
74465;SDS011;62916;50.044;15.938;2023-04-06T03:55:47;4.00;;;1.60;;
74465;SDS011;62916;50.044;15.938;2023-04-06T03:58:18;1.40;;;1.20;;
74465;SDS011;62916;50.044;15.938;2023-04-06T04:00:49;1.40;;;1.10;;
74465;SDS011;62916;50.044;15.938;2023-04-06T04:03:19;2.60;;;1.30;;
74465;SDS011;62916;50.044;15.938;2023-04-06T04:05:51;2.90;;;1.60;;
74465;SDS011;62916;50.044;15.938;2023-04-06T04:08:22;2.00;;;1.40;;
74465;SDS011;62916;50.044;15.938;2023-04-06T04:10:53;3.50;;;1.40;;
74465;SDS011;62916;50.044;15.938;2023-04-06T04:13:24;2.30;;;1.40;;
74465;SDS011;62916;50.044;15.938;2023-04-06T04:15:55;3.30;;;1.50;;
74465;SDS011;62916;50.044;15.938;2023-04-06T04:18:26;11.00;;;2.70;;
74465;SDS011;62916;50.044;15.938;2023-04-06T04:20:57;19.10;;;2.80;;
74465;SDS011;62916;50.044;15.938;2023-04-06T04:23:28;13.80;;;2.60;;
74465;SDS011;62916;50.044;15.938;2023-04-06T04:25:59;14.10;;;2.50;;
74465;SDS011;62916;50.044;15.938;2023-04-06T04:28:30;19.90;;;3.40;;
74465;SDS011;62916;50.044;15.938;2023-04-06T04:31:01;14.90;;;2.50;;
74465;SDS011;62916;50.044;15.938;2023-04-06T04:33:32;10.60;;;2.70;;
74465;SDS011;62916;50.044;15.938;2023-04-06T04:36:03;13.40;;;2.60;;
74465;SDS011;62916;50.044;15.938;2023-04-06T04:38:34;11.00;;;2.40;;
74465;SDS011;62916;50.044;15.938;2023-04-06T04:41:05;12.10;;;2.30;;
74465;SDS011;62916;50.044;15.938;2023-04-06T04:43:36;10.20;;;2.60;;
74465;SDS011;62916;50.044;15.938;2023-04-06T04:46:07;9.60;;;2.30;;
74465;SDS011;62916;50.044;15.938;2023-04-06T04:48:39;15.80;;;2.50;;
74465;SDS011;62916;50.044;15.938;2023-04-06T04:51:10;17.10;;;2.80;;
74465;SDS011;62916;50.044;15.938;2023-04-06T04:53:40;11.40;;;2.80;;
74465;SDS011;62916;50.044;15.938;2023-04-06T04:56:11;10.90;;;2.30;;
74465;SDS011;62916;50.044;15.938;2023-04-06T04:58:42;7.20;;;2.30;;
74465;SDS011;62916;50.044;15.938;2023-04-06T05:01:13;9.30;;;2.20;;
74465;SDS011;62916;50.044;15.938;2023-04-06T05:03:44;10.90;;;2.10;;
74465;SDS011;62916;50.044;15.938;2023-04-06T05:06:15;12.60;;;2.30;;
74465;SDS011;62916;50.044;15.938;2023-04-06T05:08:47;9.70;;;2.20;;
74465;SDS011;62916;50.044;15.938;2023-04-06T05:11:17;9.40;;;2.10;;
74465;SDS011;62916;50.044;15.938;2023-04-06T05:13:48;8.30;;;1.80;;
74465;SDS011;62916;50.044;15.938;2023-04-06T05:16:19;7.20;;;1.90;;
74465;SDS011;62916;50.044;15.938;2023-04-06T05:18:51;8.70;;;1.70;;
74465;SDS011;62916;50.044;15.938;2023-04-06T05:21:24;9.30;;;2.40;;
74465;SDS011;62916;50.044;15.938;2023-04-06T05:23:55;10.30;;;2.30;;
74465;SDS011;62916;50.044;15.938;2023-04-06T05:26:26;7.50;;;1.50;;
74465;SDS011;62916;50.044;15.938;2023-04-06T05:28:57;7.50;;;2.50;;
74465;SDS011;62916;50.044;15.938;2023-04-06T05:31:28;11.10;;;1.80;;
74465;SDS011;62916;50.044;15.938;2023-04-06T05:33:59;10.80;;;2.40;;
74465;SDS011;62916;50.044;15.938;2023-04-06T05:36:30;5.80;;;2.40;;
74465;SDS011;62916;50.044;15.938;2023-04-06T05:39:01;8.50;;;2.10;;
74465;SDS011;62916;50.044;15.938;2023-04-06T05:41:32;7.20;;;1.90;;
74465;SDS011;62916;50.044;15.938;2023-04-06T05:44:03;7.00;;;1.90;;
74465;SDS011;62916;50.044;15.938;2023-04-06T05:46:34;6.40;;;2.00;;
74465;SDS011;62916;50.044;15.938;2023-04-06T05:49:05;5.40;;;2.20;;
74465;SDS011;62916;50.044;15.938;2023-04-06T05:51:36;4.90;;;1.70;;
74465;SDS011;62916;50.044;15.938;2023-04-06T05:54:07;7.30;;;1.80;;
74465;SDS011;62916;50.044;15.938;2023-04-06T05:56:38;7.10;;;1.60;;
74465;SDS011;62916;50.044;15.938;2023-04-06T05:59:08;4.10;;;1.60;;
74465;SDS011;62916;50.044;15.938;2023-04-06T06:01:39;6.70;;;1.80;;
74465;SDS011;62916;50.044;15.938;2023-04-06T06:04:10;6.40;;;2.00;;
74465;SDS011;62916;50.044;15.938;2023-04-06T06:06:41;5.90;;;3.00;;
74465;SDS011;62916;50.044;15.938;2023-04-06T06:09:12;7.90;;;2.90;;
74465;SDS011;62916;50.044;15.938;2023-04-06T06:11:43;6.00;;;2.00;;
74465;SDS011;62916;50.044;15.938;2023-04-06T06:14:13;6.50;;;2.20;;
74465;SDS011;62916;50.044;15.938;2023-04-06T06:16:44;5.80;;;1.90;;
74465;SDS011;62916;50.044;15.938;2023-04-06T06:19:15;5.70;;;1.60;;
74465;SDS011;62916;50.044;15.938;2023-04-06T06:21:46;4.70;;;2.00;;
74465;SDS011;62916;50.044;15.938;2023-04-06T06:24:17;4.90;;;1.60;;
74465;SDS011;62916;50.044;15.938;2023-04-06T06:26:47;2.30;;;1.30;;
74465;SDS011;62916;50.044;15.938;2023-04-06T06:29:18;10.20;;;1.90;;
74465;SDS011;62916;50.044;15.938;2023-04-06T06:31:49;4.00;;;1.80;;
74465;SDS011;62916;50.044;15.938;2023-04-06T06:34:20;6.00;;;1.80;;
74465;SDS011;62916;50.044;15.938;2023-04-06T06:36:51;5.30;;;1.80;;
74465;SDS011;62916;50.044;15.938;2023-04-06T06:39:25;5.00;;;1.70;;
74465;SDS011;62916;50.044;15.938;2023-04-06T06:41:56;6.10;;;1.70;;
74465;SDS011;62916;50.044;15.938;2023-04-06T06:44:28;4.30;;;1.60;;
74465;SDS011;62916;50.044;15.938;2023-04-06T06:46:59;3.80;;;1.70;;
74465;SDS011;62916;50.044;15.938;2023-04-06T06:49:30;5.80;;;1.70;;
74465;SDS011;62916;50.044;15.938;2023-04-06T06:52:00;4.70;;;2.10;;
74465;SDS011;62916;50.044;15.938;2023-04-06T06:54:31;5.10;;;1.70;;
74465;SDS011;62916;50.044;15.938;2023-04-06T06:57:02;5.80;;;1.80;;
74465;SDS011;62916;50.044;15.938;2023-04-06T06:59:33;5.50;;;2.30;;
74465;SDS011;62916;50.044;15.938;2023-04-06T07:02:04;4.90;;;1.80;;
74465;SDS011;62916;50.044;15.938;2023-04-06T07:04:35;4.00;;;1.70;;
74465;SDS011;62916;50.044;15.938;2023-04-06T07:07:06;4.40;;;1.60;;
74465;SDS011;62916;50.044;15.938;2023-04-06T07:09:37;5.00;;;1.60;;
74465;SDS011;62916;50.044;15.938;2023-04-06T07:12:08;6.00;;;2.10;;
74465;SDS011;62916;50.044;15.938;2023-04-06T07:14:39;2.80;;;1.60;;
74465;SDS011;62916;50.044;15.938;2023-04-06T07:17:09;3.50;;;1.70;;
74465;SDS011;62916;50.044;15.938;2023-04-06T07:19:40;4.20;;;1.60;;
74465;SDS011;62916;50.044;15.938;2023-04-06T07:22:11;7.20;;;2.20;;
74465;SDS011;62916;50.044;15.938;2023-04-06T07:24:42;4.30;;;1.70;;
74465;SDS011;62916;50.044;15.938;2023-04-06T07:27:13;4.60;;;1.20;;
74465;SDS011;62916;50.044;15.938;2023-04-06T07:29:44;3.50;;;1.70;;
74465;SDS011;62916;50.044;15.938;2023-04-06T07:32:15;4.70;;;1.50;;
74465;SDS011;62916;50.044;15.938;2023-04-06T07:34:46;5.10;;;2.20;;
74465;SDS011;62916;50.044;15.938;2023-04-06T07:37:17;5.70;;;1.80;;
74465;SDS011;62916;50.044;15.938;2023-04-06T07:39:47;4.60;;;1.70;;
74465;SDS011;62916;50.044;15.938;2023-04-06T07:42:19;4.10;;;1.60;;
74465;SDS011;62916;50.044;15.938;2023-04-06T07:44:50;3.30;;;1.60;;
74465;SDS011;62916;50.044;15.938;2023-04-06T07:47:22;3.30;;;1.70;;
74465;SDS011;62916;50.044;15.938;2023-04-06T07:49:55;2.70;;;1.70;;
74465;SDS011;62916;50.044;15.938;2023-04-06T07:52:26;5.20;;;1.60;;
74465;SDS011;62916;50.044;15.938;2023-04-06T07:54:57;3.20;;;1.40;;
74465;SDS011;62916;50.044;15.938;2023-04-06T07:57:27;3.90;;;1.70;;
74465;SDS011;62916;50.044;15.938;2023-04-06T07:59:58;3.50;;;1.90;;
74465;SDS011;62916;50.044;15.938;2023-04-06T08:02:31;2.60;;;1.60;;
74465;SDS011;62916;50.044;15.938;2023-04-06T08:05:02;3.70;;;1.50;;
74465;SDS011;62916;50.044;15.938;2023-04-06T08:07:34;5.60;;;1.80;;
74465;SDS011;62916;50.044;15.938;2023-04-06T08:10:06;2.90;;;1.30;;
74465;SDS011;62916;50.044;15.938;2023-04-06T08:12:38;3.20;;;2.00;;
74465;SDS011;62916;50.044;15.938;2023-04-06T08:15:09;2.90;;;1.70;;
74465;SDS011;62916;50.044;15.938;2023-04-06T08:17:40;3.60;;;1.30;;
74465;SDS011;62916;50.044;15.938;2023-04-06T08:20:11;3.70;;;1.80;;
74465;SDS011;62916;50.044;15.938;2023-04-06T08:22:42;3.90;;;1.70;;
74465;SDS011;62916;50.044;15.938;2023-04-06T08:25:13;2.90;;;1.80;;
74465;SDS011;62916;50.044;15.938;2023-04-06T08:27:44;4.30;;;1.40;;
74465;SDS011;62916;50.044;15.938;2023-04-06T08:30:15;3.30;;;1.80;;
74465;SDS011;62916;50.044;15.938;2023-04-06T08:32:47;3.60;;;1.60;;
74465;SDS011;62916;50.044;15.938;2023-04-06T08:35:18;1.90;;;1.30;;
74465;SDS011;62916;50.044;15.938;2023-04-06T08:37:49;2.50;;;1.70;;
74465;SDS011;62916;50.044;15.938;2023-04-06T08:40:20;2.10;;;1.90;;
74465;SDS011;62916;50.044;15.938;2023-04-06T08:42:52;2.30;;;1.60;;
74465;SDS011;62916;50.044;15.938;2023-04-06T08:45:25;2.70;;;1.70;;
74465;SDS011;62916;50.044;15.938;2023-04-06T08:47:56;3.10;;;1.60;;
74465;SDS011;62916;50.044;15.938;2023-04-06T08:50:29;2.00;;;1.30;;
74465;SDS011;62916;50.044;15.938;2023-04-06T08:53:01;2.10;;;1.40;;
74465;SDS011;62916;50.044;15.938;2023-04-06T08:55:32;2.20;;;1.70;;
74465;SDS011;62916;50.044;15.938;2023-04-06T08:58:04;3.00;;;1.40;;
74465;SDS011;62916;50.044;15.938;2023-04-06T09:00:38;4.00;;;1.60;;
74465;SDS011;62916;50.044;15.938;2023-04-06T09:03:10;2.20;;;1.80;;
74465;SDS011;62916;50.044;15.938;2023-04-06T09:05:43;2.60;;;1.70;;
74465;SDS011;62916;50.044;15.938;2023-04-06T09:08:15;2.40;;;1.30;;
74465;SDS011;62916;50.044;15.938;2023-04-06T09:10:46;2.00;;;1.40;;
74465;SDS011;62916;50.044;15.938;2023-04-06T09:13:19;2.80;;;1.40;;
74465;SDS011;62916;50.044;15.938;2023-04-06T09:15:59;3.00;;;1.40;;
74465;SDS011;62916;50.044;15.938;2023-04-06T09:18:32;3.20;;;1.80;;
74465;SDS011;62916;50.044;15.938;2023-04-06T09:21:05;3.20;;;1.40;;
74465;SDS011;62916;50.044;15.938;2023-04-06T09:23:36;2.60;;;1.20;;
74465;SDS011;62916;50.044;15.938;2023-04-06T09:26:09;3.50;;;1.60;;
74465;SDS011;62916;50.044;15.938;2023-04-06T09:28:45;3.20;;;1.50;;
74465;SDS011;62916;50.044;15.938;2023-04-06T09:31:21;3.40;;;1.30;;
74465;SDS011;62916;50.044;15.938;2023-04-06T09:33:54;2.30;;;1.40;;
74465;SDS011;62916;50.044;15.938;2023-04-06T09:36:32;2.50;;;1.50;;
74465;SDS011;62916;50.044;15.938;2023-04-06T09:39:06;3.20;;;1.50;;
74465;SDS011;62916;50.044;15.938;2023-04-06T09:41:36;2.90;;;1.70;;
74465;SDS011;62916;50.044;15.938;2023-04-06T09:44:08;1.70;;;1.20;;
74465;SDS011;62916;50.044;15.938;2023-04-06T09:46:41;2.50;;;1.30;;
74465;SDS011;62916;50.044;15.938;2023-04-06T09:49:27;2.60;;;1.60;;
74465;SDS011;62916;50.044;15.938;2023-04-06T09:52:03;3.30;;;1.20;;
74465;SDS011;62916;50.044;15.938;2023-04-06T09:54:35;2.10;;;1.40;;
74465;SDS011;62916;50.044;15.938;2023-04-06T09:57:10;2.80;;;1.80;;
74465;SDS011;62916;50.044;15.938;2023-04-06T09:59:55;2.30;;;1.40;;
74465;SDS011;62916;50.044;15.938;2023-04-06T10:02:38;3.00;;;1.40;;
74465;SDS011;62916;50.044;15.938;2023-04-06T10:05:16;1.90;;;1.40;;
74465;SDS011;62916;50.044;15.938;2023-04-06T10:07:55;3.00;;;1.40;;
74465;SDS011;62916;50.044;15.938;2023-04-06T10:10:30;4.70;;;1.60;;
74465;SDS011;62916;50.044;15.938;2023-04-06T10:13:02;2.20;;;1.20;;
74465;SDS011;62916;50.044;15.938;2023-04-06T10:15:36;3.30;;;1.30;;
74465;SDS011;62916;50.044;15.938;2023-04-06T10:18:08;2.20;;;1.20;;
74465;SDS011;62916;50.044;15.938;2023-04-06T10:20:41;2.00;;;1.20;;
74465;SDS011;62916;50.044;15.938;2023-04-06T10:23:19;1.40;;;1.20;;
74465;SDS011;62916;50.044;15.938;2023-04-06T10:25:53;2.40;;;1.80;;
74465;SDS011;62916;50.044;15.938;2023-04-06T10:28:25;1.70;;;1.10;;
74465;SDS011;62916;50.044;15.938;2023-04-06T10:31:00;2.10;;;1.30;;
74465;SDS011;62916;50.044;15.938;2023-04-06T10:33:34;2.40;;;1.20;;
74465;SDS011;62916;50.044;15.938;2023-04-06T10:36:13;2.20;;;1.30;;
74465;SDS011;62916;50.044;15.938;2023-04-06T10:38:55;2.00;;;1.40;;
74465;SDS011;62916;50.044;15.938;2023-04-06T10:41:33;4.00;;;1.40;;
74465;SDS011;62916;50.044;15.938;2023-04-06T10:44:06;2.50;;;1.40;;
74465;SDS011;62916;50.044;15.938;2023-04-06T10:46:38;2.10;;;1.30;;
74465;SDS011;62916;50.044;15.938;2023-04-06T10:49:12;1.80;;;1.30;;
74465;SDS011;62916;50.044;15.938;2023-04-06T10:51:43;2.00;;;1.30;;
74465;SDS011;62916;50.044;15.938;2023-04-06T10:54:19;2.00;;;1.20;;
74465;SDS011;62916;50.044;15.938;2023-04-06T10:56:53;2.40;;;1.20;;
74465;SDS011;62916;50.044;15.938;2023-04-06T10:59:24;3.10;;;1.60;;
74465;SDS011;62916;50.044;15.938;2023-04-06T11:01:58;2.70;;;1.40;;
74465;SDS011;62916;50.044;15.938;2023-04-06T11:04:29;2.10;;;1.20;;
74465;SDS011;62916;50.044;15.938;2023-04-06T11:07:00;2.00;;;1.20;;
74465;SDS011;62916;50.044;15.938;2023-04-06T11:09:31;2.60;;;2.40;;
74465;SDS011;62916;50.044;15.938;2023-04-06T11:12:05;1.80;;;1.20;;
74465;SDS011;62916;50.044;15.938;2023-04-06T11:14:36;2.60;;;1.30;;
74465;SDS011;62916;50.044;15.938;2023-04-06T11:17:07;1.70;;;1.20;;
74465;SDS011;62916;50.044;15.938;2023-04-06T11:19:38;3.50;;;1.20;;
74465;SDS011;62916;50.044;15.938;2023-04-06T11:22:09;2.50;;;1.30;;
74465;SDS011;62916;50.044;15.938;2023-04-06T11:24:40;3.00;;;1.30;;
74465;SDS011;62916;50.044;15.938;2023-04-06T11:27:11;2.10;;;1.30;;
74465;SDS011;62916;50.044;15.938;2023-04-06T11:29:44;2.20;;;1.40;;
74465;SDS011;62916;50.044;15.938;2023-04-06T11:32:21;1.90;;;1.00;;
74465;SDS011;62916;50.044;15.938;2023-04-06T11:34:52;2.70;;;1.50;;
74465;SDS011;62916;50.044;15.938;2023-04-06T11:37:25;1.90;;;1.30;;
74465;SDS011;62916;50.044;15.938;2023-04-06T11:39:56;2.10;;;1.40;;
74465;SDS011;62916;50.044;15.938;2023-04-06T11:42:28;1.90;;;1.20;;
74465;SDS011;62916;50.044;15.938;2023-04-06T11:45:04;2.10;;;1.20;;
74465;SDS011;62916;50.044;15.938;2023-04-06T11:47:36;2.10;;;1.20;;
74465;SDS011;62916;50.044;15.938;2023-04-06T11:50:11;1.50;;;1.10;;
74465;SDS011;62916;50.044;15.938;2023-04-06T11:52:43;2.30;;;1.20;;
74465;SDS011;62916;50.044;15.938;2023-04-06T11:55:15;2.10;;;1.30;;
74465;SDS011;62916;50.044;15.938;2023-04-06T11:57:47;1.60;;;1.30;;
74465;SDS011;62916;50.044;15.938;2023-04-06T12:00:20;1.90;;;1.10;;
74465;SDS011;62916;50.044;15.938;2023-04-06T12:02:52;2.40;;;1.30;;
74465;SDS011;62916;50.044;15.938;2023-04-06T12:05:23;1.50;;;1.20;;
74465;SDS011;62916;50.044;15.938;2023-04-06T12:07:54;1.30;;;1.20;;
74465;SDS011;62916;50.044;15.938;2023-04-06T12:10:29;1.90;;;1.30;;
74465;SDS011;62916;50.044;15.938;2023-04-06T12:13:00;2.20;;;1.20;;
74465;SDS011;62916;50.044;15.938;2023-04-06T12:15:32;1.10;;;1.00;;
74465;SDS011;62916;50.044;15.938;2023-04-06T12:18:03;1.70;;;1.30;;
74465;SDS011;62916;50.044;15.938;2023-04-06T12:20:34;2.10;;;1.40;;
74465;SDS011;62916;50.044;15.938;2023-04-06T12:23:05;1.80;;;1.30;;
74465;SDS011;62916;50.044;15.938;2023-04-06T12:25:36;1.70;;;1.10;;
74465;SDS011;62916;50.044;15.938;2023-04-06T12:28:08;1.50;;;1.10;;
74465;SDS011;62916;50.044;15.938;2023-04-06T12:30:39;2.70;;;1.60;;
74465;SDS011;62916;50.044;15.938;2023-04-06T12:33:10;2.40;;;1.60;;
74465;SDS011;62916;50.044;15.938;2023-04-06T12:35:41;1.80;;;1.20;;
74465;SDS011;62916;50.044;15.938;2023-04-06T12:38:12;2.10;;;1.40;;
74465;SDS011;62916;50.044;15.938;2023-04-06T12:40:42;2.00;;;1.30;;
74465;SDS011;62916;50.044;15.938;2023-04-06T12:43:14;1.50;;;1.20;;
74465;SDS011;62916;50.044;15.938;2023-04-06T12:45:45;1.50;;;1.10;;
74465;SDS011;62916;50.044;15.938;2023-04-06T12:48:16;1.90;;;1.00;;
74465;SDS011;62916;50.044;15.938;2023-04-06T12:50:55;1.70;;;1.40;;
74465;SDS011;62916;50.044;15.938;2023-04-06T12:53:26;1.60;;;1.20;;
74465;SDS011;62916;50.044;15.938;2023-04-06T12:55:57;2.00;;;1.20;;
74465;SDS011;62916;50.044;15.938;2023-04-06T12:58:28;1.50;;;1.20;;
74465;SDS011;62916;50.044;15.938;2023-04-06T13:00:59;2.60;;;1.40;;
74465;SDS011;62916;50.044;15.938;2023-04-06T13:03:35;2.20;;;1.20;;
74465;SDS011;62916;50.044;15.938;2023-04-06T13:06:06;1.90;;;1.20;;
74465;SDS011;62916;50.044;15.938;2023-04-06T13:08:38;1.20;;;0.90;;
74465;SDS011;62916;50.044;15.938;2023-04-06T13:11:10;2.20;;;1.30;;
74465;SDS011;62916;50.044;15.938;2023-04-06T13:13:42;1.40;;;1.10;;
74465;SDS011;62916;50.044;15.938;2023-04-06T13:16:13;2.50;;;1.60;;
74465;SDS011;62916;50.044;15.938;2023-04-06T13:18:44;2.10;;;1.30;;
74465;SDS011;62916;50.044;15.938;2023-04-06T13:21:15;1.90;;;1.50;;
74465;SDS011;62916;50.044;15.938;2023-04-06T13:23:48;1.50;;;1.20;;
74465;SDS011;62916;50.044;15.938;2023-04-06T13:26:19;1.70;;;1.50;;
74465;SDS011;62916;50.044;15.938;2023-04-06T13:28:50;1.50;;;1.20;;
74465;SDS011;62916;50.044;15.938;2023-04-06T13:31:21;1.60;;;1.10;;
74465;SDS011;62916;50.044;15.938;2023-04-06T13:33:52;1.40;;;1.30;;
74465;SDS011;62916;50.044;15.938;2023-04-06T13:36:23;1.90;;;1.20;;
74465;SDS011;62916;50.044;15.938;2023-04-06T13:38:54;2.60;;;1.50;;
74465;SDS011;62916;50.044;15.938;2023-04-06T13:41:25;1.70;;;1.30;;
74465;SDS011;62916;50.044;15.938;2023-04-06T13:43:56;1.80;;;1.40;;
74465;SDS011;62916;50.044;15.938;2023-04-06T13:46:27;2.20;;;1.40;;
74465;SDS011;62916;50.044;15.938;2023-04-06T13:48:58;1.90;;;1.30;;
74465;SDS011;62916;50.044;15.938;2023-04-06T13:51:29;1.80;;;1.40;;
74465;SDS011;62916;50.044;15.938;2023-04-06T13:54:00;1.30;;;1.20;;
74465;SDS011;62916;50.044;15.938;2023-04-06T13:56:30;2.40;;;1.50;;
74465;SDS011;62916;50.044;15.938;2023-04-06T13:59:02;1.30;;;0.90;;
74465;SDS011;62916;50.044;15.938;2023-04-06T14:01:33;2.00;;;1.40;;
74465;SDS011;62916;50.044;15.938;2023-04-06T14:04:04;1.80;;;1.40;;
74465;SDS011;62916;50.044;15.938;2023-04-06T14:06:36;1.60;;;1.50;;
74465;SDS011;62916;50.044;15.938;2023-04-06T14:09:07;1.50;;;1.30;;
74465;SDS011;62916;50.044;15.938;2023-04-06T14:11:39;1.90;;;1.50;;
74465;SDS011;62916;50.044;15.938;2023-04-06T14:14:09;1.50;;;1.40;;
74465;SDS011;62916;50.044;15.938;2023-04-06T14:16:40;1.70;;;1.30;;
74465;SDS011;62916;50.044;15.938;2023-04-06T14:19:13;1.20;;;1.10;;
74465;SDS011;62916;50.044;15.938;2023-04-06T14:21:45;5.00;;;1.60;;
74465;SDS011;62916;50.044;15.938;2023-04-06T14:24:17;1.70;;;1.20;;
74465;SDS011;62916;50.044;15.938;2023-04-06T14:26:49;1.90;;;1.30;;
74465;SDS011;62916;50.044;15.938;2023-04-06T14:29:20;2.00;;;1.70;;
74465;SDS011;62916;50.044;15.938;2023-04-06T14:31:51;1.90;;;1.50;;
74465;SDS011;62916;50.044;15.938;2023-04-06T14:34:27;1.80;;;1.40;;
74465;SDS011;62916;50.044;15.938;2023-04-06T14:36:58;1.50;;;1.10;;
74465;SDS011;62916;50.044;15.938;2023-04-06T14:39:29;1.60;;;1.20;;
74465;SDS011;62916;50.044;15.938;2023-04-06T14:42:00;2.20;;;1.80;;
74465;SDS011;62916;50.044;15.938;2023-04-06T14:44:32;1.60;;;1.40;;
74465;SDS011;62916;50.044;15.938;2023-04-06T14:47:04;1.40;;;1.20;;
74465;SDS011;62916;50.044;15.938;2023-04-06T14:49:36;1.90;;;1.60;;
74465;SDS011;62916;50.044;15.938;2023-04-06T14:52:07;2.20;;;1.40;;
74465;SDS011;62916;50.044;15.938;2023-04-06T14:54:38;1.60;;;1.10;;
74465;SDS011;62916;50.044;15.938;2023-04-06T14:57:09;1.70;;;1.30;;
74465;SDS011;62916;50.044;15.938;2023-04-06T14:59:40;1.50;;;1.30;;